Time;durP1;ratioP1;P1;durP2;ratioP2;P2;SDS_P1;SDS_P2;PMS_P1;PMS_P2;Temp;Humidity;BMP_temperature;BMP_pressure;BME280_temperature;BME280_humidity;BME280_pressure;Samples;Min_cycle;Max_cycle;Signal;HPM_P1;HPM_P2
2023/01/06 00:00:11;;;;;;;2.97;1.02;;;7.30;99.90;;;;;;4898619;29;20020;-92
2023/01/06 00:02:36;;;;;;;2.92;0.90;;;7.30;99.90;;;;;;4913515;29;20036;-94
2023/01/06 00:05:03;;;;;;;4.20;0.65;;;7.30;99.90;;;;;;4898210;29;20028;-93
2023/01/06 00:07:28;;;;;;;3.05;0.68;;;7.30;99.90;;;;;;4899011;29;20100;-92
2023/01/06 00:09:54;;;;;;;2.17;0.77;;;7.40;99.90;;;;;;4897496;29;20064;-93
2023/01/06 00:12:20;;;;;;;1.63;0.65;;;7.40;99.90;;;;;;4913725;29;20111;-92
2023/01/06 00:14:46;;;;;;;2.15;0.70;;;7.40;99.90;;;;;;4898994;29;20060;-93
2023/01/06 00:17:13;;;;;;;3.55;0.98;;;7.40;99.90;;;;;;4898869;29;20056;-92
2023/01/06 00:19:38;;;;;;;5.53;0.90;;;7.40;99.90;;;;;;4898276;29;20028;-93
2023/01/06 00:22:04;;;;;;;1.42;0.60;;;7.40;99.90;;;;;;4898138;29;20542;-95
2023/01/06 00:24:32;;;;;;;3.97;0.70;;;7.40;99.90;;;;;;4914071;29;20084;-94
2023/01/06 00:26:58;;;;;;;1.38;0.57;;;7.40;99.90;;;;;;4906460;29;20058;-93
2023/01/06 00:29:24;;;;;;;1.48;0.85;;;7.40;99.90;;;;;;4906945;29;20037;-91
2023/01/06 00:31:49;;;;;;;2.90;0.70;;;7.40;99.90;;;;;;4903165;29;20033;-92
2023/01/06 00:34:15;;;;;;;1.75;0.68;;;7.40;99.90;;;;;;4903008;29;20112;-91
2023/01/06 00:36:41;;;;;;;3.80;0.90;;;7.40;99.90;;;;;;4899133;29;20099;-91
2023/01/06 00:39:07;;;;;;;1.50;0.60;;;7.40;99.90;;;;;;4899112;29;20141;-91
2023/01/06 00:44:16;;;;;;;5.05;0.63;;;7.30;99.90;;;;;;4898933;29;20064;-92
2023/01/06 00:46:42;;;;;;;2.90;0.77;;;7.40;99.90;;;;;;4897791;29;20040;-91
2023/01/06 00:49:07;;;;;;;1.05;0.60;;;7.40;99.90;;;;;;4911726;29;20036;-91
2023/01/06 00:51:38;;;;;;;1.63;0.77;;;7.40;99.90;;;;;;4897810;29;20043;-93
2023/01/06 00:54:05;;;;;;;7.30;1.35;;;7.40;99.90;;;;;;4896548;29;20033;-93
2023/01/06 00:56:31;;;;;;;6.63;1.30;;;7.30;99.90;;;;;;4897541;29;20033;-92
2023/01/06 00:58:57;;;;;;;2.92;1.05;;;7.30;99.90;;;;;;4898061;29;20112;-91
2023/01/06 01:01:22;;;;;;;6.78;1.30;;;7.30;99.90;;;;;;4912687;29;20029;-94
2023/01/06 01:03:48;;;;;;;4.70;1.20;;;7.30;99.90;;;;;;4900179;29;20033;-93
2023/01/06 01:06:15;;;;;;;6.43;1.05;;;7.30;99.90;;;;;;4927335;29;20048;-90
2023/01/06 01:08:41;;;;;;;2.10;0.80;;;7.30;99.90;;;;;;4914346;29;20029;-93
2023/01/06 01:11:09;;;;;;;3.33;0.88;;;7.20;99.90;;;;;;4929632;29;20024;-92
2023/01/06 01:13:35;;;;;;;4.88;1.42;;;7.20;99.90;;;;;;4929391;29;20554;-90
2023/01/06 01:16:08;;;;;;;4.50;0.60;;;7.20;99.90;;;;;;4914982;29;20021;-91
2023/01/06 01:18:34;;;;;;;6.75;0.80;;;7.10;99.90;;;;;;4908389;29;20036;-91
2023/01/06 01:21:01;;;;;;;6.72;0.70;;;7.10;99.90;;;;;;4906631;29;20020;-93
2023/01/06 01:23:26;;;;;;;3.88;0.90;;;7.10;99.90;;;;;;4906688;29;20051;-92
2023/01/06 01:25:56;;;;;;;7.47;1.30;;;7.10;99.90;;;;;;4903512;29;20025;-92
2023/01/06 01:28:22;;;;;;;5.25;0.60;;;7.10;99.90;;;;;;4902843;29;20033;-92
2023/01/06 01:30:48;;;;;;;8.95;1.10;;;7.10;99.90;;;;;;4902355;29;20538;-93
2023/01/06 01:33:13;;;;;;;9.48;1.70;;;7.00;99.90;;;;;;4902705;29;20309;-93
2023/01/06 01:35:39;;;;;;;5.32;0.98;;;7.00;99.90;;;;;;4902196;29;20040;-92
2023/01/06 01:38:05;;;;;;;5.00;1.33;;;7.00;99.90;;;;;;4902010;29;20025;-92
2023/01/06 01:40:30;;;;;;;3.65;1.20;;;7.00;99.90;;;;;;4901260;29;20032;-93
2023/01/06 01:42:56;;;;;;;3.95;0.70;;;7.00;99.90;;;;;;4900206;29;20483;-91
2023/01/06 01:45:27;;;;;;;14.25;2.33;;;6.90;99.90;;;;;;4900242;29;20036;-92
2023/01/06 01:47:59;;;;;;;5.03;1.20;;;6.90;99.90;;;;;;4900704;29;20056;-93
2023/01/06 01:50:43;;;;;;;9.48;1.17;;;6.90;99.90;;;;;;4900050;29;20044;-93
2023/01/06 01:53:16;;;;;;;5.85;1.25;;;6.80;99.90;;;;;;4900292;29;20048;-91
2023/01/06 01:55:42;;;;;;;8.07;0.93;;;6.80;99.90;;;;;;4900740;29;20025;-92
2023/01/06 01:58:11;;;;;;;6.40;1.10;;;6.80;99.90;;;;;;4899305;29;20820;-92
2023/01/06 02:00:39;;;;;;;5.90;0.73;;;6.90;99.90;;;;;;4899869;29;20029;-92
2023/01/06 02:03:06;;;;;;;11.60;2.53;;;6.80;99.90;;;;;;4899877;29;20020;-94
2023/01/06 02:05:33;;;;;;;6.07;1.13;;;6.80;99.90;;;;;;4899922;29;20055;-94
2023/01/06 02:08:04;;;;;;;10.65;1.85;;;6.80;99.90;;;;;;4899667;29;20036;-94
2023/01/06 02:10:29;;;;;;;8.43;1.20;;;6.80;99.90;;;;;;4899594;29;20047;-92
2023/01/06 02:12:58;;;;;;;10.77;1.30;;;6.80;99.90;;;;;;4900888;29;20021;-93
2023/01/06 02:15:29;;;;;;;18.70;2.42;;;6.80;99.90;;;;;;4900754;29;20048;-92
2023/01/06 02:18:31;;;;;;;9.15;1.80;;;6.80;99.90;;;;;;4901374;29;20101;-92
2023/01/06 02:21:11;;;;;;;12.25;1.70;;;6.70;99.90;;;;;;4899734;29;20044;-92
2023/01/06 02:24:05;;;;;;;13.55;1.33;;;6.70;99.90;;;;;;4905593;29;20025;-92
2023/01/06 02:26:46;;;;;;;7.32;1.00;;;6.70;99.90;;;;;;4902749;29;20040;-92
2023/01/06 02:29:21;;;;;;;4.90;0.93;;;6.70;99.90;;;;;;4900668;29;20045;-93
2023/01/06 02:32:15;;;;;;;7.85;1.25;;;6.70;99.90;;;;;;4899098;29;20498;-92
2023/01/06 02:35:14;;;;;;;16.08;0.82;;;6.70;99.90;;;;;;4898920;29;20561;-92
2023/01/06 02:38:03;;;;;;;10.32;1.33;;;6.70;99.90;;;;;;4899678;29;20372;-92
2023/01/06 02:40:46;;;;;;;9.40;1.33;;;6.60;99.90;;;;;;4898917;29;20032;-94
2023/01/06 02:43:15;;;;;;;10.45;1.17;;;6.60;99.90;;;;;;4898778;29;20037;-92
2023/01/06 02:45:46;;;;;;;15.45;1.35;;;6.60;99.90;;;;;;4898608;29;20139;-93
2023/01/06 02:48:27;;;;;;;14.70;1.90;;;6.60;99.90;;;;;;4899731;29;20135;-92
2023/01/06 02:51:19;;;;;;;;;;;6.60;99.90;;;;;;4901216;29;20291;-91
2023/01/06 02:54:04;;;;;;;14.05;1.63;;;6.60;99.90;;;;;;4891528;29;19907;-92
2023/01/06 02:56:37;;;;;;;13.00;1.85;;;6.50;99.90;;;;;;4904428;29;20060;-91
2023/01/06 02:59:19;;;;;;;13.40;2.13;;;6.50;99.90;;;;;;4901549;29;20029;-92
2023/01/06 03:01:48;;;;;;;14.23;1.73;;;6.40;99.90;;;;;;4900414;29;20032;-92
2023/01/06 03:04:19;;;;;;;12.25;1.77;;;6.40;99.90;;;;;;4898348;29;20028;-92
2023/01/06 03:06:48;;;;;;;21.10;2.50;;;6.40;99.90;;;;;;4899528;29;20085;-92
2023/01/06 03:09:18;;;;;;;11.20;2.53;;;6.40;99.90;;;;;;4899992;29;20037;-91
2023/01/06 03:11:49;;;;;;;10.68;1.67;;;6.40;99.90;;;;;;4900380;29;20025;-91
2023/01/06 03:14:22;;;;;;;9.13;1.73;;;6.40;99.90;;;;;;4899132;29;20044;-92
2023/01/06 03:16:47;;;;;;;14.40;1.92;;;6.40;99.90;;;;;;4899666;29;20104;-92
2023/01/06 03:19:14;;;;;;;8.35;1.10;;;6.30;99.90;;;;;;4899165;29;20060;-92
2023/01/06 03:21:43;;;;;;;9.77;2.28;;;6.30;99.90;;;;;;4899469;29;20534;-93
2023/01/06 03:24:10;;;;;;;13.45;1.67;;;6.40;99.90;;;;;;4907161;29;20443;-93
2023/01/06 03:26:38;;;;;;;9.60;1.52;;;6.30;99.90;;;;;;4906458;29;20533;-93
2023/01/06 03:29:06;;;;;;;17.98;2.17;;;6.30;99.90;;;;;;4906164;29;20044;-92
2023/01/06 03:32:06;;;;;;;11.38;1.25;;;6.30;99.90;;;;;;4903299;29;20554;-93
2023/01/06 03:35:02;;;;;;;8.75;1.45;;;6.30;99.90;;;;;;4901907;29;20028;-93
2023/01/06 03:38:06;;;;;;;13.30;1.65;;;6.30;99.90;;;;;;4899540;29;20080;-93
2023/01/06 03:40:43;;;;;;;9.18;1.25;;;6.30;99.90;;;;;;4898936;29;20040;-92
2023/01/06 03:43:38;;;;;;;7.90;1.80;;;6.20;99.90;;;;;;4900424;29;20045;-92
2023/01/06 03:46:34;;;;;;;6.57;1.08;;;6.20;99.90;;;;;;4899562;29;20035;-94
2023/01/06 03:49:24;;;;;;;15.10;1.67;;;6.30;99.90;;;;;;4899273;29;20038;-94
2023/01/06 03:51:55;;;;;;;16.48;2.45;;;6.30;99.90;;;;;;4898810;29;20088;-93
2023/01/06 03:54:39;;;;;;;7.93;1.30;;;6.20;99.90;;;;;;4898237;29;20503;-93
2023/01/06 03:57:19;;;;;;;7.63;1.50;;;6.20;99.90;;;;;;4899092;29;20141;-93
2023/01/06 04:00:01;;;;;;;20.60;1.60;;;6.20;99.90;;;;;;4897956;29;20033;-94
2023/01/06 04:02:27;;;;;;;15.10;1.55;;;6.20;99.90;;;;;;4898984;29;20032;-93
2023/01/06 04:05:00;;;;;;;14.30;1.73;;;6.20;99.90;;;;;;4899429;29;20538;-93
2023/01/06 04:07:26;;;;;;;12.10;1.75;;;6.20;99.90;;;;;;4897507;29;20029;-94
2023/01/06 04:09:51;;;;;;;11.35;1.50;;;6.20;99.90;;;;;;4897199;29;20506;-92
2023/01/06 04:15:01;;;;;;;10.82;1.27;;;6.20;99.90;;;;;;4898547;29;20039;-92
2023/01/06 04:17:26;;;;;;;12.35;1.63;;;6.20;99.90;;;;;;4897305;29;20036;-93
2023/01/06 04:19:52;;;;;;;12.90;1.25;;;6.20;99.90;;;;;;4898742;29;20040;-93
2023/01/06 04:22:18;;;;;;;15.02;2.45;;;6.20;99.90;;;;;;4897920;29;20422;-92
2023/01/06 04:24:43;;;;;;;10.32;2.00;;;6.20;99.90;;;;;;4896654;29;20036;-93
2023/01/06 04:27:09;;;;;;;15.30;1.60;;;6.20;99.90;;;;;;4896668;29;20029;-94
2023/01/06 04:29:34;;;;;;;7.30;1.60;;;6.20;99.90;;;;;;4897896;29;20052;-93
2023/01/06 04:32:00;;;;;;;9.48;1.67;;;6.20;99.90;;;;;;4896729;29;20040;-93
2023/01/06 04:34:26;;;;;;;12.43;1.42;;;6.20;99.90;;;;;;4897818;29;20032;-94
2023/01/06 04:36:51;;;;;;;11.80;1.55;;;6.20;99.90;;;;;;4898572;29;20514;-94
2023/01/06 04:39:17;;;;;;;12.82;2.47;;;6.20;99.90;;;;;;4898650;29;20036;-94
2023/01/06 04:41:42;;;;;;;17.90;3.45;;;6.20;99.90;;;;;;4898266;29;20067;-94
2023/01/06 04:44:08;;;;;;;14.35;2.08;;;6.20;99.90;;;;;;4897188;29;20203;-92
2023/01/06 04:46:34;;;;;;;17.67;1.92;;;6.10;99.90;;;;;;4897752;29;20585;-94
2023/01/06 04:48:59;;;;;;;16.58;2.10;;;6.20;99.90;;;;;;4897302;29;20492;-93
2023/01/06 04:51:25;;;;;;;18.80;1.42;;;6.20;99.90;;;;;;4896690;29;20032;-92
2023/01/06 04:53:50;;;;;;;11.82;1.27;;;6.20;99.90;;;;;;4896555;29;20083;-94
2023/01/06 04:56:16;;;;;;;17.98;2.60;;;6.20;99.90;;;;;;4895407;29;20036;-93
2023/01/06 04:58:42;;;;;;;9.52;1.40;;;6.20;99.90;;;;;;4896146;29;20089;-93
2023/01/06 05:01:11;;;;;;;14.90;1.45;;;6.10;99.90;;;;;;4897181;29;20024;-93
2023/01/06 05:03:37;;;;;;;9.05;1.45;;;6.10;99.90;;;;;;4896216;29;20032;-93
2023/01/06 05:06:08;;;;;;;18.65;2.55;;;6.10;99.90;;;;;;4896412;29;20088;-93
2023/01/06 05:08:35;;;;;;;17.17;1.92;;;6.10;99.90;;;;;;4896058;29;20084;-94
2023/01/06 05:11:03;;;;;;;7.53;1.80;;;6.00;99.90;;;;;;4896770;29;20045;-93
2023/01/06 05:13:32;;;;;;;13.52;1.80;;;6.00;99.90;;;;;;4897014;29;20032;-94
2023/01/06 05:15:58;;;;;;;13.45;1.70;;;6.00;99.90;;;;;;4896066;29;20028;-91
2023/01/06 05:18:24;;;;;;;5.40;1.30;;;6.00;99.90;;;;;;4896415;29;20092;-94
2023/01/06 05:20:50;;;;;;;10.07;1.38;;;6.00;99.90;;;;;;4896546;29;20653;-94
2023/01/06 05:23:16;;;;;;;11.85;1.45;;;5.90;99.90;;;;;;4898412;29;20034;-94
2023/01/06 05:25:42;;;;;;;10.75;1.63;;;5.90;99.90;;;;;;4898415;29;20036;-92
2023/01/06 05:28:08;;;;;;;17.30;1.75;;;5.90;99.90;;;;;;4901782;29;20036;-93
2023/01/06 05:30:33;;;;;;;14.95;1.65;;;5.90;99.90;;;;;;4896228;29;20048;-94
2023/01/06 05:32:59;;;;;;;11.23;1.63;;;5.90;99.90;;;;;;4896489;29;20024;-93
2023/01/06 05:35:25;;;;;;;19.83;2.33;;;5.90;99.90;;;;;;4897553;29;20036;-92
2023/01/06 05:37:53;;;;;;;9.88;1.27;;;5.80;99.90;;;;;;4894109;29;20172;-90
2023/01/06 05:40:19;;;;;;;12.60;1.83;;;5.80;99.90;;;;;;4896286;29;20036;-92
2023/01/06 05:42:44;;;;;;;15.55;1.85;;;5.80;99.90;;;;;;4895869;29;20025;-94
2023/01/06 05:45:10;;;;;;;18.75;1.90;;;5.70;99.90;;;;;;4896154;29;20037;-91
2023/01/06 05:47:36;;;;;;;10.10;2.00;;;5.70;99.90;;;;;;4895472;29;20041;-93
2023/01/06 05:50:02;;;;;;;13.32;1.45;;;5.70;99.90;;;;;;4896061;29;20028;-94
2023/01/06 05:52:28;;;;;;;15.38;1.63;;;5.70;99.90;;;;;;4895965;29;20032;-93
2023/01/06 05:54:54;;;;;;;9.75;1.98;;;5.70;99.90;;;;;;4895704;29;20044;-93
2023/01/06 05:57:19;;;;;;;14.13;2.00;;;5.70;99.90;;;;;;4895539;29;20029;-93
2023/01/06 05:59:45;;;;;;;10.32;1.50;;;5.70;99.90;;;;;;4895268;29;20048;-93
2023/01/06 06:02:11;;;;;;;15.75;2.08;;;5.70;99.90;;;;;;4897023;29;20032;-93
2023/01/06 06:04:36;;;;;;;8.63;1.50;;;5.70;99.90;;;;;;4897234;29;20076;-91
2023/01/06 06:07:02;;;;;;;16.95;2.33;;;5.70;99.90;;;;;;4898301;29;20136;-94
2023/01/06 06:09:28;;;;;;;17.13;3.65;;;5.70;99.90;;;;;;4900290;29;20538;-93
2023/01/06 06:11:54;;;;;;;19.45;2.42;;;5.70;99.90;;;;;;4902133;29;20033;-93
2023/01/06 06:14:20;;;;;;;10.85;2.20;;;5.70;99.90;;;;;;4908643;29;20550;-95
2023/01/06 06:16:45;;;;;;;17.75;2.42;;;5.70;99.90;;;;;;4902373;29;20048;-95
2023/01/06 06:19:12;;;;;;;15.38;2.70;;;5.70;99.90;;;;;;4900180;29;20063;-93
2023/01/06 06:21:38;;;;;;;19.45;1.70;;;5.70;99.90;;;;;;4899462;29;20032;-94
2023/01/06 06:24:04;;;;;;;15.85;1.75;;;5.70;99.90;;;;;;4902564;29;20029;-94
2023/01/06 06:26:30;;;;;;;22.48;2.10;;;5.70;99.90;;;;;;4906445;29;20035;-93
2023/01/06 06:28:55;;;;;;;17.35;1.73;;;5.70;99.90;;;;;;4907378;29;20127;-93
2023/01/06 06:31:26;;;;;;;16.88;2.15;;;5.70;99.90;;;;;;4906782;29;20064;-93
2023/01/06 06:33:53;;;;;;;;;;;5.70;99.90;;;;;;4904288;29;20033;-94
2023/01/06 06:36:19;;;;;;;15.23;2.58;;;5.70;99.90;;;;;;4918054;29;19998;-94
2023/01/06 06:38:47;;;;;;;10.80;2.10;;;5.70;99.90;;;;;;4899958;29;20123;-94
2023/01/06 06:41:13;;;;;;;17.00;2.08;;;5.60;99.90;;;;;;4899385;29;20068;-93
2023/01/06 06:43:39;;;;;;;16.48;2.13;;;5.60;99.90;;;;;;4898779;29;20131;-93
2023/01/06 06:46:05;;;;;;;17.98;2.25;;;5.60;99.90;;;;;;4898643;29;20515;-95
2023/01/06 06:48:31;;;;;;;11.82;1.55;;;5.60;99.90;;;;;;4905822;29;20111;-94
2023/01/06 06:51:03;;;;;;;13.77;1.60;;;5.60;99.90;;;;;;4898767;29;20478;-93
2023/01/06 06:53:28;;;;;;;15.43;2.20;;;5.50;99.90;;;;;;4895992;29;20020;-95
2023/01/06 06:55:55;;;;;;;12.70;1.50;;;5.50;99.90;;;;;;4906570;29;20510;-94
2023/01/06 06:58:21;;;;;;;21.02;2.65;;;5.50;99.90;;;;;;4898028;29;20479;-94
2023/01/06 07:00:47;;;;;;;17.13;2.13;;;5.50;99.90;;;;;;4893797;29;20501;-94
2023/01/06 07:03:12;;;;;;;12.18;1.95;;;5.50;99.90;;;;;;4907033;29;20049;-95
2023/01/06 07:05:40;;;;;;;30.08;3.60;;;5.50;99.90;;;;;;4898938;29;20029;-93
2023/01/06 07:08:07;;;;;;;15.68;2.15;;;5.50;99.90;;;;;;4898152;29;20031;-95
2023/01/06 07:10:32;;;;;;;12.32;2.17;;;5.50;99.90;;;;;;4905723;29;20033;-94
2023/01/06 07:12:58;;;;;;;23.55;2.03;;;5.50;99.90;;;;;;4898000;29;20084;-94
2023/01/06 07:15:24;;;;;;;14.48;2.45;;;5.60;99.90;;;;;;4898432;29;20056;-95
2023/01/06 07:17:49;;;;;;;11.68;1.90;;;5.60;99.90;;;;;;4897684;29;20021;-94
2023/01/06 07:20:15;;;;;;;13.35;2.00;;;5.60;99.90;;;;;;4897176;29;20030;-95
2023/01/06 07:22:41;;;;;;;16.95;2.53;;;5.60;99.90;;;;;;4897721;29;20422;-94
2023/01/06 07:25:08;;;;;;;13.60;1.73;;;5.70;99.90;;;;;;4914377;29;20516;-95
2023/01/06 07:27:34;;;;;;;21.85;2.95;;;5.60;99.90;;;;;;4917515;29;20056;-95
2023/01/06 07:30:00;;;;;;;8.95;1.80;;;5.60;99.90;;;;;;4921161;29;20244;-93
2023/01/06 07:32:26;;;;;;;28.45;3.72;;;5.60;99.90;;;;;;4913592;29;20024;-95
2023/01/06 07:34:51;;;;;;;26.33;3.08;;;5.60;99.90;;;;;;4913367;29;20525;-94
2023/01/06 07:37:17;;;;;;;17.30;1.58;;;5.60;99.90;;;;;;4913239;29;20048;-93
2023/01/06 07:39:43;;;;;;;22.17;1.75;;;5.60;99.90;;;;;;4913232;29;20033;-94
2023/01/06 07:42:08;;;;;;;12.63;1.60;;;5.60;99.90;;;;;;4910227;29;20031;-93
2023/01/06 07:44:34;;;;;;;15.77;1.95;;;5.60;99.90;;;;;;4897305;29;20049;-94
2023/01/06 07:47:00;;;;;;;20.70;2.08;;;5.70;99.90;;;;;;4898102;29;20558;-95
2023/01/06 07:49:28;;;;;;;19.38;2.25;;;5.60;99.90;;;;;;4904160;29;20043;-95
2023/01/06 07:51:54;;;;;;;19.73;2.13;;;5.60;99.90;;;;;;4910489;29;20032;-95
2023/01/06 07:54:19;;;;;;;22.17;2.20;;;5.60;99.90;;;;;;4898154;29;20209;-95
2023/01/06 07:56:47;;;;;;;12.88;2.00;;;5.60;99.90;;;;;;4907117;29;20021;-94
2023/01/06 07:59:12;;;;;;;14.73;2.00;;;5.60;99.90;;;;;;4897950;29;20499;-94
2023/01/06 08:01:38;;;;;;;14.55;1.50;;;5.60;99.90;;;;;;4912464;29;20067;-95
2023/01/06 08:04:04;;;;;;;11.13;2.20;;;5.50;99.90;;;;;;4897556;29;20025;-96
2023/01/06 08:06:29;;;;;;;17.83;2.40;;;5.50;99.90;;;;;;4897665;29;20051;-95
2023/01/06 08:08:55;;;;;;;14.68;1.75;;;5.50;99.90;;;;;;4898265;29;20474;-95
2023/01/06 08:11:21;;;;;;;16.73;2.15;;;5.40;99.90;;;;;;4897453;29;20112;-95
2023/01/06 08:13:46;;;;;;;18.52;2.47;;;5.40;99.90;;;;;;4905063;29;20029;-94
2023/01/06 08:16:12;;;;;;;24.67;2.40;;;5.40;99.90;;;;;;4897289;29;20021;-95
2023/01/06 08:18:38;;;;;;;12.63;2.22;;;5.40;99.90;;;;;;4898275;29;20039;-95
2023/01/06 08:21:09;;;;;;;14.55;2.63;;;5.40;99.90;;;;;;4904669;29;20029;-90
2023/01/06 08:23:35;;;;;;;;;;;5.40;99.90;;;;;;4897758;29;20032;-94
2023/01/06 08:26:09;;;;;;;17.42;2.08;;;5.50;99.90;;;;;;4899607;29;19914;-93
2023/01/06 08:28:35;;;;;;;11.38;1.92;;;5.50;99.90;;;;;;4906838;29;20041;-92
2023/01/06 08:31:02;;;;;;;23.92;2.83;;;5.60;99.90;;;;;;4906579;29;20059;-95
2023/01/06 08:33:28;;;;;;;21.45;3.60;;;5.60;99.90;;;;;;4905558;29;20039;-94
2023/01/06 08:35:59;;;;;;;16.45;2.00;;;5.60;99.90;;;;;;4907184;29;20047;-96
2023/01/06 08:38:25;;;;;;;15.57;1.88;;;5.70;99.90;;;;;;4910557;29;20036;-94
2023/01/06 08:40:56;;;;;;;24.08;2.08;;;5.70;99.90;;;;;;4904945;29;20024;-95
2023/01/06 08:43:23;;;;;;;18.15;2.13;;;5.80;99.90;;;;;;4898002;29;20044;-93
2023/01/06 08:45:49;;;;;;;14.60;2.03;;;5.80;99.90;;;;;;4896650;29;20119;-94
2023/01/06 08:48:15;;;;;;;19.92;3.35;;;5.90;99.90;;;;;;4896163;29;20052;-94
2023/01/06 08:50:41;;;;;;;21.08;2.60;;;6.00;99.90;;;;;;4896704;29;20149;-95
2023/01/06 08:53:08;;;;;;;14.93;2.90;;;6.00;99.90;;;;;;4897499;29;20020;-94
2023/01/06 08:55:37;;;;;;;10.65;1.98;;;6.10;99.90;;;;;;4896997;29;20035;-92
2023/01/06 08:58:03;;;;;;;21.98;2.40;;;6.10;99.90;;;;;;4891647;29;20029;-95
2023/01/06 09:00:29;;;;;;;13.00;2.85;;;6.10;99.90;;;;;;4905720;29;20052;-93
2023/01/06 09:02:55;;;;;;;11.68;1.92;;;6.20;99.90;;;;;;4898300;29;20080;-94
2023/01/06 09:05:20;;;;;;;11.18;2.47;;;6.30;99.90;;;;;;4888441;29;20024;-94
2023/01/06 09:07:46;;;;;;;12.23;1.80;;;6.30;99.90;;;;;;4896545;29;20116;-94
2023/01/06 09:10:12;;;;;;;13.63;2.92;;;6.30;99.90;;;;;;4904159;29;20024;-93
2023/01/06 09:12:38;;;;;;;11.43;2.92;;;6.30;99.90;;;;;;4896207;29;20059;-95
2023/01/06 09:15:04;;;;;;;15.82;3.63;;;6.30;99.90;;;;;;4902065;29;20112;-93
2023/01/06 09:17:31;;;;;;;10.70;1.55;;;6.40;99.90;;;;;;4906601;29;20488;-93
2023/01/06 09:19:57;;;;;;;13.40;1.42;;;6.40;99.90;;;;;;4896637;29;20024;-93
2023/01/06 09:22:23;;;;;;;9.27;1.23;;;6.40;99.90;;;;;;4898732;29;20490;-93
2023/01/06 09:24:48;;;;;;;13.68;2.10;;;6.40;99.90;;;;;;4909722;29;20044;-90
2023/01/06 09:27:14;;;;;;;12.90;1.55;;;6.50;99.90;;;;;;4913546;29;20402;-96
2023/01/06 09:29:40;;;;;;;10.27;1.88;;;6.50;99.90;;;;;;4904005;29;20553;-94
2023/01/06 09:32:08;;;;;;;13.07;2.03;;;6.50;99.90;;;;;;4902454;29;20025;-94
2023/01/06 09:34:34;;;;;;;10.98;2.33;;;6.50;99.90;;;;;;4900960;29;20035;-92
2023/01/06 09:37:00;;;;;;;17.10;2.13;;;6.50;99.90;;;;;;4899722;29;20025;-94
2023/01/06 09:39:26;;;;;;;13.15;1.48;;;6.60;99.90;;;;;;4897897;29;20063;-92
2023/01/06 09:42:16;;;;;;;10.85;1.67;;;6.60;99.90;;;;;;4906360;29;20025;-93
2023/01/06 09:44:45;;;;;;;10.80;2.13;;;6.70;99.90;;;;;;4901115;29;20063;-94
2023/01/06 09:47:15;;;;;;;13.60;1.60;;;6.70;99.90;;;;;;4895793;29;20096;-94
2023/01/06 09:49:43;;;;;;;9.77;1.40;;;6.80;99.90;;;;;;4900409;29;20063;-95
2023/01/06 09:52:22;;;;;;;5.18;0.82;;;6.80;99.90;;;;;;4901503;29;20051;-92
2023/01/06 09:55:02;;;;;;;11.70;1.27;;;6.80;99.90;;;;;;4910352;29;20033;-93
2023/01/06 09:57:38;;;;;;;7.05;1.23;;;6.90;99.90;;;;;;4897898;29;20031;-93
2023/01/06 10:00:35;;;;;;;13.13;1.90;;;7.00;99.90;;;;;;4898928;29;20040;-93
2023/01/06 10:03:01;;;;;;;12.15;1.30;;;7.00;99.90;;;;;;4895481;29;20031;-93
2023/01/06 10:05:38;;;;;;;10.70;1.73;;;7.10;99.90;;;;;;4907493;29;20021;-94
2023/01/06 10:08:36;;;;;;;14.13;1.63;;;7.20;99.90;;;;;;4901209;29;20507;-94
2023/01/06 10:11:13;;;;;;;14.30;1.45;;;7.40;99.90;;;;;;4915389;29;20032;-93
2023/01/06 10:14:17;;;;;;;11.48;1.08;;;7.70;99.90;;;;;;4899924;29;20033;-93
2023/01/06 10:17:07;;;;;;;7.88;1.10;;;7.90;99.90;;;;;;4888616;29;20376;-93
2023/01/06 10:19:55;;;;;;;11.20;1.50;;;8.10;99.90;;;;;;4915524;29;20025;-92
2023/01/06 10:22:32;;;;;;;15.38;2.33;;;8.10;99.90;;;;;;4920710;29;20025;-93
2023/01/06 10:25:14;;;;;;;13.30;2.08;;;8.20;99.90;;;;;;4900283;29;20035;-93
2023/01/06 10:27:46;;;;;;;23.13;3.03;;;8.30;99.90;;;;;;4909168;29;20036;-92
2023/01/06 10:30:18;;;;;;;14.23;1.70;;;8.30;99.90;;;;;;4904883;29;20044;-91
2023/01/06 10:32:46;;;;;;;17.30;3.85;;;8.30;99.90;;;;;;4902690;29;20027;-92
2023/01/06 10:35:15;;;;;;;16.08;2.28;;;8.40;99.90;;;;;;4900111;29;20029;-93
2023/01/06 10:37:44;;;;;;;10.32;1.55;;;8.40;99.90;;;;;;4903716;29;20027;-94
2023/01/06 10:40:24;;;;;;;16.23;1.47;;;8.50;99.90;;;;;;4926097;29;20013;-94
2023/01/06 10:43:11;;;;;;;13.23;1.55;;;8.60;99.90;;;;;;4907342;29;20273;-94
2023/01/06 10:45:43;;;;;;;8.77;1.40;;;8.70;99.90;;;;;;4911004;29;20068;-94
2023/01/06 10:48:18;;;;;;;11.13;1.73;;;8.70;99.90;;;;;;4911195;29;20037;-95
2023/01/06 10:50:43;;;;;;;13.48;1.70;;;8.80;99.90;;;;;;4913518;29;20029;-94
2023/01/06 10:53:11;;;;;;;8.77;1.23;;;8.90;99.90;;;;;;4900137;29;20044;-94
2023/01/06 10:55:57;;;;;;;7.97;1.45;;;9.10;99.90;;;;;;4909738;29;20038;-94
2023/01/06 10:58:40;;;;;;;9.68;1.40;;;9.10;99.90;;;;;;4908336;29;20051;-94
2023/01/06 11:01:11;;;;;;;12.48;1.67;;;9.10;99.90;;;;;;4909114;29;20036;-95
2023/01/06 11:03:47;;;;;;;13.38;2.00;;;9.10;99.90;;;;;;4909345;29;20057;-94
2023/01/06 11:06:22;;;;;;;15.02;1.63;;;9.30;99.90;;;;;;4912633;29;20024;-94
2023/01/06 11:08:48;;;;;;;8.65;2.20;;;9.40;99.90;;;;;;4910961;29;20077;-91
2023/01/06 11:11:16;;;;;;;14.30;3.85;;;9.40;99.90;;;;;;4913139;29;20036;-91
2023/01/06 11:13:48;;;;;;;8.20;1.52;;;9.50;99.90;;;;;;4928063;29;20028;-91
2023/01/06 11:16:32;;;;;;;9.73;1.23;;;9.50;99.90;;;;;;4928181;29;20025;-94
2023/01/06 11:19:20;;;;;;;11.38;2.17;;;9.50;99.90;;;;;;4926828;29;20040;-93
2023/01/06 11:21:46;;;;;;;7.35;1.27;;;9.30;99.90;;;;;;4912857;29;20027;-92
2023/01/06 11:24:19;;;;;;;13.80;2.00;;;9.20;99.90;;;;;;4930510;29;20048;-92
2023/01/06 11:26:50;;;;;;;6.72;1.52;;;9.10;99.90;;;;;;4934013;29;20096;-93
2023/01/06 11:29:24;;;;;;;15.13;2.65;;;8.90;99.90;;;;;;4929664;29;20056;-91
2023/01/06 11:31:50;;;;;;;8.80;1.98;;;8.80;99.90;;;;;;4930910;29;20043;-90
2023/01/06 11:34:24;;;;;;;13.48;1.80;;;8.70;99.90;;;;;;4916558;29;20036;-93
2023/01/06 11:36:50;;;;;;;15.35;2.63;;;8.50;99.90;;;;;;4914020;29;20064;-92
2023/01/06 11:39:34;;;;;;;12.82;2.30;;;8.40;99.90;;;;;;4916948;29;20048;-93
2023/01/06 11:42:11;;;;;;;18.58;2.30;;;8.30;99.90;;;;;;4915187;29;20021;-93
2023/01/06 11:44:39;;;;;;;14.82;2.63;;;8.30;99.90;;;;;;4934359;29;20041;-91
2023/01/06 11:47:12;;;;;;;11.85;2.25;;;8.30;99.90;;;;;;4927389;29;20036;-90
2023/01/06 11:49:47;;;;;;;15.52;3.40;;;8.30;99.90;;;;;;4933586;29;20040;-91
2023/01/06 11:52:23;;;;;;;18.50;2.00;;;8.30;99.90;;;;;;4934199;29;20033;-91
2023/01/06 11:55:09;;;;;;;9.52;1.73;;;8.30;99.90;;;;;;4918577;29;20028;-92
2023/01/06 11:58:01;;;;;;;11.60;1.58;;;8.30;99.90;;;;;;4910851;29;20047;-92
2023/01/06 12:00:40;;;;;;;9.68;1.52;;;8.30;99.90;;;;;;4926790;29;20020;-95
2023/01/06 12:03:18;;;;;;;4.50;0.73;;;8.30;99.90;;;;;;4907648;29;20052;-94
2023/01/06 12:06:15;;;;;;;9.65;1.35;;;8.30;99.90;;;;;;4907499;29;20076;-92
2023/01/06 12:08:44;;;;;;;6.72;2.17;;;8.30;99.90;;;;;;4914538;29;20040;-95
2023/01/06 12:11:54;;;;;;;5.85;1.00;;;8.30;99.90;;;;;;4922074;29;20052;-94
2023/01/06 12:14:23;;;;;;;4.63;0.90;;;8.30;99.90;;;;;;4908151;29;20080;-95
2023/01/06 12:17:03;;;;;;;16.05;1.60;;;8.30;99.90;;;;;;4922353;29;20038;-94
2023/01/06 12:19:50;;;;;;;7.47;1.70;;;8.40;99.90;;;;;;4905385;29;20123;-94
2023/01/06 12:23:00;;;;;;;7.30;1.50;;;8.50;99.90;;;;;;4918029;29;20031;-95
2023/01/06 12:25:36;;;;;;;2.25;0.47;;;8.60;99.90;;;;;;4886353;29;20048;-95
2023/01/06 12:28:13;;;;;;;6.55;1.65;;;8.50;99.90;;;;;;4884237;29;20053;-93
2023/01/06 12:30:55;;;;;;;1.63;0.90;;;8.50;99.90;;;;;;4885701;29;20049;-92
2023/01/06 12:33:41;;;;;;;3.00;0.93;;;8.50;99.90;;;;;;4882396;29;20033;-93
2023/01/06 12:36:15;;;;;;;9.90;2.53;;;8.50;99.90;;;;;;4882011;29;20029;-93
2023/01/06 12:38:57;;;;;;;6.75;1.40;;;8.50;99.90;;;;;;4881004;29;20033;-91
2023/01/06 12:41:50;;;;;;;6.03;0.93;;;8.40;99.90;;;;;;4881187;29;20039;-93
2023/01/06 12:44:40;;;;;;;2.17;0.57;;;8.40;99.90;;;;;;4879928;29;20097;-93
2023/01/06 12:47:29;;;;;;;6.30;0.98;;;8.40;99.90;;;;;;4885861;29;20029;-95
2023/01/06 12:50:04;;;;;;;2.90;0.90;;;8.40;99.90;;;;;;4884726;29;20045;-94
2023/01/06 12:52:39;;;;;;;7.07;2.28;;;8.50;99.90;;;;;;4880580;29;20025;-92
2023/01/06 12:55:05;;;;;;;8.35;0.93;;;8.50;99.90;;;;;;4883108;29;20120;-93
2023/01/06 12:57:52;;;;;;;4.78;0.93;;;8.60;99.90;;;;;;4904901;29;20034;-93
2023/01/06 13:00:38;;;;;;;4.07;0.60;;;8.80;99.90;;;;;;4912613;29;20033;-92
2023/01/06 13:03:19;;;;;;;3.80;0.95;;;9.00;99.90;;;;;;4914820;29;20032;-93
2023/01/06 13:06:23;;;;;;;5.50;1.38;;;9.00;99.90;;;;;;4906643;29;20032;-93
2023/01/06 13:08:54;;;;;;;1.80;0.65;;;9.00;99.90;;;;;;4911844;29;20036;-94
2023/01/06 13:11:39;;;;;;;4.03;1.15;;;8.90;99.90;;;;;;4898662;29;20041;-92
2023/01/06 13:14:17;;;;;;;6.55;0.90;;;8.90;99.90;;;;;;4898684;29;20032;-91
2023/01/06 13:16:54;;;;;;;7.28;1.13;;;9.20;99.90;;;;;;4913104;29;20128;-94